sensor_id;sensor_type;location;lat;lon;timestamp;P1;durP1;ratioP1;P2;durP2;ratioP2
5077;SDS011;2557;51.390;7.494;2023-04-03T00:01:34;13.25;;;11.85;;
5077;SDS011;2557;51.390;7.494;2023-04-03T00:04:03;23.33;;;12.10;;
5077;SDS011;2557;51.390;7.494;2023-04-03T00:06:29;17.55;;;12.07;;
5077;SDS011;2557;51.390;7.494;2023-04-03T00:08:55;15.47;;;11.27;;
5077;SDS011;2557;51.390;7.494;2023-04-03T00:11:21;15.10;;;11.33;;
5077;SDS011;2557;51.390;7.494;2023-04-03T00:13:47;15.75;;;11.40;;
5077;SDS011;2557;51.390;7.494;2023-04-03T00:16:13;15.63;;;11.10;;
5077;SDS011;2557;51.390;7.494;2023-04-03T00:18:39;17.65;;;11.55;;
5077;SDS011;2557;51.390;7.494;2023-04-03T00:21:05;12.15;;;10.95;;
5077;SDS011;2557;51.390;7.494;2023-04-03T00:23:33;12.90;;;10.45;;
5077;SDS011;2557;51.390;7.494;2023-04-03T00:25:59;20.02;;;12.85;;
5077;SDS011;2557;51.390;7.494;2023-04-03T00:28:25;13.00;;;11.32;;
5077;SDS011;2557;51.390;7.494;2023-04-03T00:30:52;22.27;;;13.00;;
5077;SDS011;2557;51.390;7.494;2023-04-03T00:33:18;17.90;;;11.32;;
5077;SDS011;2557;51.390;7.494;2023-04-03T00:35:46;14.68;;;12.27;;
5077;SDS011;2557;51.390;7.494;2023-04-03T00:38:13;22.48;;;12.30;;
5077;SDS011;2557;51.390;7.494;2023-04-03T00:40:41;14.20;;;11.73;;
5077;SDS011;2557;51.390;7.494;2023-04-03T00:43:12;16.15;;;12.65;;
5077;SDS011;2557;51.390;7.494;2023-04-03T00:45:39;14.82;;;12.25;;
5077;SDS011;2557;51.390;7.494;2023-04-03T00:48:07;18.30;;;12.73;;
5077;SDS011;2557;51.390;7.494;2023-04-03T00:50:34;17.42;;;14.57;;
5077;SDS011;2557;51.390;7.494;2023-04-03T00:53:01;25.77;;;13.50;;
5077;SDS011;2557;51.390;7.494;2023-04-03T00:55:27;16.65;;;12.40;;
5077;SDS011;2557;51.390;7.494;2023-04-03T00:57:53;16.17;;;12.50;;
5077;SDS011;2557;51.390;7.494;2023-04-03T01:00:21;17.48;;;12.43;;
5077;SDS011;2557;51.390;7.494;2023-04-03T01:02:48;15.65;;;12.82;;
5077;SDS011;2557;51.390;7.494;2023-04-03T01:05:14;14.30;;;12.10;;
5077;SDS011;2557;51.390;7.494;2023-04-03T01:07:41;17.35;;;13.02;;
5077;SDS011;2557;51.390;7.494;2023-04-03T01:10:08;13.57;;;11.68;;
5077;SDS011;2557;51.390;7.494;2023-04-03T01:12:36;14.93;;;12.38;;
5077;SDS011;2557;51.390;7.494;2023-04-03T01:15:09;15.98;;;11.18;;
5077;SDS011;2557;51.390;7.494;2023-04-03T01:25:15;20.65;;;12.43;;
5077;SDS011;2557;51.390;7.494;2023-04-03T01:27:41;15.10;;;10.17;;
5077;SDS011;2557;51.390;7.494;2023-04-03T01:30:07;16.00;;;11.47;;
5077;SDS011;2557;51.390;7.494;2023-04-03T01:32:33;18.85;;;12.32;;
5077;SDS011;2557;51.390;7.494;2023-04-03T01:34:59;18.38;;;13.10;;
5077;SDS011;2557;51.390;7.494;2023-04-03T01:37:25;18.77;;;12.03;;
5077;SDS011;2557;51.390;7.494;2023-04-03T01:39:51;13.70;;;10.27;;
5077;SDS011;2557;51.390;7.494;2023-04-03T01:42:17;16.57;;;10.17;;
5077;SDS011;2557;51.390;7.494;2023-04-03T01:44:43;13.80;;;12.05;;
5077;SDS011;2557;51.390;7.494;2023-04-03T01:47:10;11.57;;;10.38;;
5077;SDS011;2557;51.390;7.494;2023-04-03T01:49:36;13.68;;;9.65;;
5077;SDS011;2557;51.390;7.494;2023-04-03T01:52:02;11.10;;;9.80;;
5077;SDS011;2557;51.390;7.494;2023-04-03T01:54:28;14.80;;;10.25;;
5077;SDS011;2557;51.390;7.494;2023-04-03T01:56:54;14.50;;;10.83;;
5077;SDS011;2557;51.390;7.494;2023-04-03T01:59:20;17.88;;;10.65;;
5077;SDS011;2557;51.390;7.494;2023-04-03T02:01:46;23.83;;;11.45;;
5077;SDS011;2557;51.390;7.494;2023-04-03T02:04:12;12.20;;;10.68;;
5077;SDS011;2557;51.390;7.494;2023-04-03T02:06:38;16.85;;;11.40;;
5077;SDS011;2557;51.390;7.494;2023-04-03T02:09:05;20.30;;;10.43;;
5077;SDS011;2557;51.390;7.494;2023-04-03T02:11:31;17.42;;;11.90;;
5077;SDS011;2557;51.390;7.494;2023-04-03T02:13:57;12.68;;;10.18;;
5077;SDS011;2557;51.390;7.494;2023-04-03T02:16:23;19.75;;;11.05;;
5077;SDS011;2557;51.390;7.494;2023-04-03T02:18:49;15.00;;;11.07;;
5077;SDS011;2557;51.390;7.494;2023-04-03T02:21:15;15.05;;;11.10;;
5077;SDS011;2557;51.390;7.494;2023-04-03T02:23:41;17.58;;;10.77;;
5077;SDS011;2557;51.390;7.494;2023-04-03T02:26:09;12.40;;;10.38;;
5077;SDS011;2557;51.390;7.494;2023-04-03T02:28:35;16.33;;;10.93;;
5077;SDS011;2557;51.390;7.494;2023-04-03T02:31:02;14.38;;;10.98;;
5077;SDS011;2557;51.390;7.494;2023-04-03T02:33:28;19.55;;;11.50;;
5077;SDS011;2557;51.390;7.494;2023-04-03T02:35:54;14.00;;;10.88;;
5077;SDS011;2557;51.390;7.494;2023-04-03T02:38:21;15.77;;;11.00;;
5077;SDS011;2557;51.390;7.494;2023-04-03T02:40:47;11.10;;;9.82;;
5077;SDS011;2557;51.390;7.494;2023-04-03T02:43:13;13.13;;;9.80;;
5077;SDS011;2557;51.390;7.494;2023-04-03T02:45:39;13.77;;;10.85;;
5077;SDS011;2557;51.390;7.494;2023-04-03T02:48:05;15.07;;;12.20;;
5077;SDS011;2557;51.390;7.494;2023-04-03T02:50:31;15.33;;;12.67;;
5077;SDS011;2557;51.390;7.494;2023-04-03T02:52:57;14.50;;;11.13;;
5077;SDS011;2557;51.390;7.494;2023-04-03T02:55:23;14.38;;;11.90;;
5077;SDS011;2557;51.390;7.494;2023-04-03T02:57:49;18.45;;;10.90;;
5077;SDS011;2557;51.390;7.494;2023-04-03T03:00:15;15.57;;;10.50;;
5077;SDS011;2557;51.390;7.494;2023-04-03T03:02:41;11.32;;;10.23;;
5077;SDS011;2557;51.390;7.494;2023-04-03T03:05:07;14.60;;;10.70;;
5077;SDS011;2557;51.390;7.494;2023-04-03T03:07:33;14.25;;;10.85;;
5077;SDS011;2557;51.390;7.494;2023-04-03T03:09:59;17.60;;;12.38;;
5077;SDS011;2557;51.390;7.494;2023-04-03T03:12:25;12.50;;;10.23;;
5077;SDS011;2557;51.390;7.494;2023-04-03T03:14:51;15.52;;;10.40;;
5077;SDS011;2557;51.390;7.494;2023-04-03T03:17:17;13.23;;;10.50;;
5077;SDS011;2557;51.390;7.494;2023-04-03T03:19:43;12.73;;;10.40;;
5077;SDS011;2557;51.390;7.494;2023-04-03T03:22:10;12.30;;;10.00;;
5077;SDS011;2557;51.390;7.494;2023-04-03T03:24:37;12.55;;;9.50;;
5077;SDS011;2557;51.390;7.494;2023-04-03T03:27:03;13.00;;;8.13;;
5077;SDS011;2557;51.390;7.494;2023-04-03T03:29:29;15.40;;;9.25;;
5077;SDS011;2557;51.390;7.494;2023-04-03T03:31:55;10.90;;;7.27;;
5077;SDS011;2557;51.390;7.494;2023-04-03T03:34:21;11.13;;;7.65;;
5077;SDS011;2557;51.390;7.494;2023-04-03T03:36:47;16.27;;;8.48;;
5077;SDS011;2557;51.390;7.494;2023-04-03T03:39:13;9.03;;;7.60;;
5077;SDS011;2557;51.390;7.494;2023-04-03T03:41:39;13.02;;;7.82;;
5077;SDS011;2557;51.390;7.494;2023-04-03T03:44:05;9.02;;;7.80;;
5077;SDS011;2557;51.390;7.494;2023-04-03T03:46:31;9.88;;;7.20;;
5077;SDS011;2557;51.390;7.494;2023-04-03T03:48:57;13.32;;;8.48;;
5077;SDS011;2557;51.390;7.494;2023-04-03T03:51:23;17.38;;;7.72;;
5077;SDS011;2557;51.390;7.494;2023-04-03T03:53:49;6.43;;;5.78;;
5077;SDS011;2557;51.390;7.494;2023-04-03T03:56:15;10.00;;;6.15;;
5077;SDS011;2557;51.390;7.494;2023-04-03T03:58:41;10.20;;;6.80;;
5077;SDS011;2557;51.390;7.494;2023-04-03T04:01:07;9.38;;;6.32;;
5077;SDS011;2557;51.390;7.494;2023-04-03T04:03:33;9.63;;;6.10;;
5077;SDS011;2557;51.390;7.494;2023-04-03T04:05:59;6.10;;;5.55;;
5077;SDS011;2557;51.390;7.494;2023-04-03T04:08:26;8.00;;;5.82;;
5077;SDS011;2557;51.390;7.494;2023-04-03T04:10:52;6.03;;;5.50;;
5077;SDS011;2557;51.390;7.494;2023-04-03T04:13:18;13.10;;;6.38;;
5077;SDS011;2557;51.390;7.494;2023-04-03T04:15:44;5.93;;;5.35;;
5077;SDS011;2557;51.390;7.494;2023-04-03T04:18:10;14.23;;;5.63;;
5077;SDS011;2557;51.390;7.494;2023-04-03T04:20:36;7.07;;;5.68;;
5077;SDS011;2557;51.390;7.494;2023-04-03T04:23:02;10.05;;;6.60;;
5077;SDS011;2557;51.390;7.494;2023-04-03T04:25:28;8.25;;;4.93;;
5077;SDS011;2557;51.390;7.494;2023-04-03T04:27:54;8.18;;;5.25;;
5077;SDS011;2557;51.390;7.494;2023-04-03T04:30:20;8.57;;;5.10;;
5077;SDS011;2557;51.390;7.494;2023-04-03T04:32:46;8.87;;;5.17;;
5077;SDS011;2557;51.390;7.494;2023-04-03T04:35:12;7.50;;;5.77;;
5077;SDS011;2557;51.390;7.494;2023-04-03T04:37:38;9.90;;;4.70;;
5077;SDS011;2557;51.390;7.494;2023-04-03T04:40:05;4.63;;;4.32;;
5077;SDS011;2557;51.390;7.494;2023-04-03T04:42:31;5.03;;;4.63;;
5077;SDS011;2557;51.390;7.494;2023-04-03T04:44:57;5.25;;;4.80;;
5077;SDS011;2557;51.390;7.494;2023-04-03T04:47:23;9.57;;;5.53;;
5077;SDS011;2557;51.390;7.494;2023-04-03T04:49:49;7.07;;;4.75;;
5077;SDS011;2557;51.390;7.494;2023-04-03T04:52:15;9.98;;;5.07;;
5077;SDS011;2557;51.390;7.494;2023-04-03T04:54:41;8.00;;;4.55;;
5077;SDS011;2557;51.390;7.494;2023-04-03T04:57:07;10.93;;;5.10;;
5077;SDS011;2557;51.390;7.494;2023-04-03T04:59:33;6.93;;;4.07;;
5077;SDS011;2557;51.390;7.494;2023-04-03T05:01:59;11.73;;;5.75;;
5077;SDS011;2557;51.390;7.494;2023-04-03T05:04:25;8.20;;;5.33;;
5077;SDS011;2557;51.390;7.494;2023-04-03T05:06:51;6.15;;;5.20;;
5077;SDS011;2557;51.390;7.494;2023-04-03T05:09:17;9.73;;;5.00;;
5077;SDS011;2557;51.390;7.494;2023-04-03T05:11:45;6.05;;;4.55;;
5077;SDS011;2557;51.390;7.494;2023-04-03T05:14:11;10.13;;;5.03;;
5077;SDS011;2557;51.390;7.494;2023-04-03T05:16:37;7.18;;;4.40;;
5077;SDS011;2557;51.390;7.494;2023-04-03T05:19:03;7.65;;;4.72;;
5077;SDS011;2557;51.390;7.494;2023-04-03T05:21:30;8.50;;;4.40;;
5077;SDS011;2557;51.390;7.494;2023-04-03T05:24:00;6.20;;;3.83;;
5077;SDS011;2557;51.390;7.494;2023-04-03T05:26:29;8.02;;;5.25;;
5077;SDS011;2557;51.390;7.494;2023-04-03T05:28:55;5.30;;;4.38;;
5077;SDS011;2557;51.390;7.494;2023-04-03T05:31:21;8.30;;;4.27;;
5077;SDS011;2557;51.390;7.494;2023-04-03T05:33:48;8.43;;;4.25;;
5077;SDS011;2557;51.390;7.494;2023-04-03T05:36:14;11.00;;;4.78;;
5077;SDS011;2557;51.390;7.494;2023-04-03T05:38:40;12.85;;;4.35;;
5077;SDS011;2557;51.390;7.494;2023-04-03T05:41:06;8.07;;;4.28;;
5077;SDS011;2557;51.390;7.494;2023-04-03T05:43:32;9.05;;;4.47;;
5077;SDS011;2557;51.390;7.494;2023-04-03T05:45:59;6.93;;;4.25;;
5077;SDS011;2557;51.390;7.494;2023-04-03T05:48:25;8.20;;;4.72;;
5077;SDS011;2557;51.390;7.494;2023-04-03T05:50:51;6.00;;;4.20;;
5077;SDS011;2557;51.390;7.494;2023-04-03T05:53:18;8.07;;;4.60;;
5077;SDS011;2557;51.390;7.494;2023-04-03T05:55:46;10.93;;;3.78;;
5077;SDS011;2557;51.390;7.494;2023-04-03T05:58:12;7.93;;;4.27;;
5077;SDS011;2557;51.390;7.494;2023-04-03T06:00:38;4.70;;;4.13;;
5077;SDS011;2557;51.390;7.494;2023-04-03T06:03:05;3.83;;;3.50;;
5077;SDS011;2557;51.390;7.494;2023-04-03T06:05:31;11.10;;;4.95;;
5077;SDS011;2557;51.390;7.494;2023-04-03T06:07:57;9.13;;;4.72;;
5077;SDS011;2557;51.390;7.494;2023-04-03T06:10:23;6.95;;;5.05;;
5077;SDS011;2557;51.390;7.494;2023-04-03T06:12:49;7.93;;;4.35;;
5077;SDS011;2557;51.390;7.494;2023-04-03T06:15:16;12.65;;;5.55;;
5077;SDS011;2557;51.390;7.494;2023-04-03T06:17:42;16.00;;;3.95;;
5077;SDS011;2557;51.390;7.494;2023-04-03T06:20:08;8.07;;;4.43;;
5077;SDS011;2557;51.390;7.494;2023-04-03T06:22:35;4.90;;;3.80;;
5077;SDS011;2557;51.390;7.494;2023-04-03T06:25:01;11.27;;;4.05;;
5077;SDS011;2557;51.390;7.494;2023-04-03T06:27:27;5.30;;;2.88;;
5077;SDS011;2557;51.390;7.494;2023-04-03T06:29:53;8.63;;;4.13;;
5077;SDS011;2557;51.390;7.494;2023-04-03T06:32:19;8.38;;;3.75;;
5077;SDS011;2557;51.390;7.494;2023-04-03T06:34:45;7.63;;;4.45;;
5077;SDS011;2557;51.390;7.494;2023-04-03T06:37:15;11.63;;;3.85;;
5077;SDS011;2557;51.390;7.494;2023-04-03T06:39:42;5.90;;;3.30;;
5077;SDS011;2557;51.390;7.494;2023-04-03T06:42:08;8.07;;;3.88;;
5077;SDS011;2557;51.390;7.494;2023-04-03T06:44:34;3.85;;;2.78;;
5077;SDS011;2557;51.390;7.494;2023-04-03T06:47:00;6.95;;;3.72;;
5077;SDS011;2557;51.390;7.494;2023-04-03T06:49:26;5.53;;;3.10;;
5077;SDS011;2557;51.390;7.494;2023-04-03T06:51:53;6.25;;;3.15;;
5077;SDS011;2557;51.390;7.494;2023-04-03T06:54:21;9.80;;;3.10;;
5077;SDS011;2557;51.390;7.494;2023-04-03T06:56:46;7.50;;;3.90;;
5077;SDS011;2557;51.390;7.494;2023-04-03T06:59:13;6.00;;;2.85;;
5077;SDS011;2557;51.390;7.494;2023-04-03T07:01:39;6.82;;;3.30;;
5077;SDS011;2557;51.390;7.494;2023-04-03T07:04:05;7.60;;;3.28;;
5077;SDS011;2557;51.390;7.494;2023-04-03T07:06:32;5.15;;;3.45;;
5077;SDS011;2557;51.390;7.494;2023-04-03T07:08:58;6.55;;;3.65;;
5077;SDS011;2557;51.390;7.494;2023-04-03T07:11:25;9.68;;;3.83;;
5077;SDS011;2557;51.390;7.494;2023-04-03T07:13:51;4.53;;;3.03;;
5077;SDS011;2557;51.390;7.494;2023-04-03T07:16:17;4.65;;;3.63;;
5077;SDS011;2557;51.390;7.494;2023-04-03T07:18:44;13.73;;;3.40;;
5077;SDS011;2557;51.390;7.494;2023-04-03T07:21:10;8.90;;;3.85;;
5077;SDS011;2557;51.390;7.494;2023-04-03T07:23:36;3.58;;;2.50;;
5077;SDS011;2557;51.390;7.494;2023-04-03T07:26:02;6.85;;;3.97;;
5077;SDS011;2557;51.390;7.494;2023-04-03T07:28:29;4.82;;;3.25;;
5077;SDS011;2557;51.390;7.494;2023-04-03T07:31:05;4.27;;;3.00;;
5077;SDS011;2557;51.390;7.494;2023-04-03T07:33:33;7.28;;;3.63;;
5077;SDS011;2557;51.390;7.494;2023-04-03T07:40:27;7.85;;;3.45;;
5077;SDS011;2557;51.390;7.494;2023-04-03T07:42:53;8.33;;;3.70;;
5077;SDS011;2557;51.390;7.494;2023-04-03T07:45:21;6.18;;;2.75;;
5077;SDS011;2557;51.390;7.494;2023-04-03T07:47:47;12.02;;;4.00;;
5077;SDS011;2557;51.390;7.494;2023-04-03T07:50:13;10.45;;;3.70;;
5077;SDS011;2557;51.390;7.494;2023-04-03T07:52:39;5.88;;;3.30;;
5077;SDS011;2557;51.390;7.494;2023-04-03T07:55:06;10.67;;;2.93;;
5077;SDS011;2557;51.390;7.494;2023-04-03T07:57:32;12.05;;;3.22;;
5077;SDS011;2557;51.390;7.494;2023-04-03T07:59:58;3.57;;;3.20;;
5077;SDS011;2557;51.390;7.494;2023-04-03T08:02:24;5.85;;;3.80;;
5077;SDS011;2557;51.390;7.494;2023-04-03T08:04:50;6.53;;;3.95;;
5077;SDS011;2557;51.390;7.494;2023-04-03T08:07:16;6.27;;;3.27;;
5077;SDS011;2557;51.390;7.494;2023-04-03T08:09:42;6.33;;;3.10;;
5077;SDS011;2557;51.390;7.494;2023-04-03T08:12:09;6.10;;;3.20;;
5077;SDS011;2557;51.390;7.494;2023-04-03T08:14:36;3.95;;;2.20;;
5077;SDS011;2557;51.390;7.494;2023-04-03T08:17:02;5.90;;;2.97;;
5077;SDS011;2557;51.390;7.494;2023-04-03T08:19:29;5.75;;;2.97;;
5077;SDS011;2557;51.390;7.494;2023-04-03T08:21:56;3.05;;;2.85;;
5077;SDS011;2557;51.390;7.494;2023-04-03T08:24:23;8.32;;;2.60;;
5077;SDS011;2557;51.390;7.494;2023-04-03T08:26:49;4.40;;;2.60;;
5077;SDS011;2557;51.390;7.494;2023-04-03T08:29:15;2.95;;;2.75;;
5077;SDS011;2557;51.390;7.494;2023-04-03T08:31:41;3.25;;;2.20;;
5077;SDS011;2557;51.390;7.494;2023-04-03T08:34:07;2.92;;;2.58;;
5077;SDS011;2557;51.390;7.494;2023-04-03T08:36:34;3.83;;;2.88;;
5077;SDS011;2557;51.390;7.494;2023-04-03T08:39:00;5.63;;;2.40;;
5077;SDS011;2557;51.390;7.494;2023-04-03T08:41:32;5.88;;;2.80;;
5077;SDS011;2557;51.390;7.494;2023-04-03T08:44:15;6.25;;;2.17;;
5077;SDS011;2557;51.390;7.494;2023-04-03T08:49:21;5.63;;;2.60;;
5077;SDS011;2557;51.390;7.494;2023-04-03T08:51:49;4.40;;;1.95;;
5077;SDS011;2557;51.390;7.494;2023-04-03T08:54:27;4.60;;;2.95;;
5077;SDS011;2557;51.390;7.494;2023-04-03T08:56:54;6.13;;;3.03;;
5077;SDS011;2557;51.390;7.494;2023-04-03T08:59:25;12.30;;;3.35;;
5077;SDS011;2557;51.390;7.494;2023-04-03T09:01:52;6.55;;;2.92;;
5077;SDS011;2557;51.390;7.494;2023-04-03T09:04:19;7.05;;;2.83;;
5077;SDS011;2557;51.390;7.494;2023-04-03T09:06:52;6.22;;;2.47;;
5077;SDS011;2557;51.390;7.494;2023-04-03T09:12:00;12.88;;;3.00;;
5077;SDS011;2557;51.390;7.494;2023-04-03T09:14:46;5.38;;;2.65;;
5077;SDS011;2557;51.390;7.494;2023-04-03T09:17:19;7.10;;;4.30;;
5077;SDS011;2557;51.390;7.494;2023-04-03T09:22:17;5.73;;;3.07;;
5077;SDS011;2557;51.390;7.494;2023-04-03T09:24:45;2.73;;;2.53;;
5077;SDS011;2557;51.390;7.494;2023-04-03T09:27:12;5.13;;;2.83;;
5077;SDS011;2557;51.390;7.494;2023-04-03T09:29:42;8.03;;;2.50;;
5077;SDS011;2557;51.390;7.494;2023-04-03T09:35:21;3.23;;;2.00;;
5077;SDS011;2557;51.390;7.494;2023-04-03T09:37:49;2.67;;;2.27;;
5077;SDS011;2557;51.390;7.494;2023-04-03T09:43:08;4.80;;;2.20;;
5077;SDS011;2557;51.390;7.494;2023-04-03T09:45:39;3.73;;;2.27;;
5077;SDS011;2557;51.390;7.494;2023-04-03T09:48:06;3.03;;;2.40;;
5077;SDS011;2557;51.390;7.494;2023-04-03T09:50:34;5.40;;;2.30;;
5077;SDS011;2557;51.390;7.494;2023-04-03T09:53:04;3.03;;;2.07;;
5077;SDS011;2557;51.390;7.494;2023-04-03T09:55:30;3.17;;;2.20;;
5077;SDS011;2557;51.390;7.494;2023-04-03T09:58:00;4.27;;;2.00;;
5077;SDS011;2557;51.390;7.494;2023-04-03T10:00:27;2.07;;;1.70;;
5077;SDS011;2557;51.390;7.494;2023-04-03T10:02:54;1.67;;;1.53;;
5077;SDS011;2557;51.390;7.494;2023-04-03T10:05:28;2.03;;;1.90;;
5077;SDS011;2557;51.390;7.494;2023-04-03T10:10:40;2.23;;;1.80;;
5077;SDS011;2557;51.390;7.494;2023-04-03T10:13:17;1.77;;;1.63;;
5077;SDS011;2557;51.390;7.494;2023-04-03T10:21:06;4.90;;;1.87;;
5077;SDS011;2557;51.390;7.494;2023-04-03T10:23:42;4.60;;;2.10;;
5077;SDS011;2557;51.390;7.494;2023-04-03T10:26:17;2.10;;;1.90;;
5077;SDS011;2557;51.390;7.494;2023-04-03T10:31:25;2.77;;;2.13;;
5077;SDS011;2557;51.390;7.494;2023-04-03T10:34:35;1.60;;;1.50;;
5077;SDS011;2557;51.390;7.494;2023-04-03T10:36:49;4.27;;;1.67;;
5077;SDS011;2557;51.390;7.494;2023-04-03T10:41:59;2.00;;;1.57;;
5077;SDS011;2557;51.390;7.494;2023-04-03T10:44:30;8.93;;;1.93;;
5077;SDS011;2557;51.390;7.494;2023-04-03T10:47:07;3.30;;;2.00;;
5077;SDS011;2557;51.390;7.494;2023-04-03T10:54:39;1.63;;;1.40;;
5077;SDS011;2557;51.390;7.494;2023-04-03T10:57:08;1.90;;;1.50;;
5077;SDS011;2557;51.390;7.494;2023-04-03T10:59:41;5.23;;;1.40;;
5077;SDS011;2557;51.390;7.494;2023-04-03T11:02:16;2.87;;;2.03;;
5077;SDS011;2557;51.390;7.494;2023-04-03T11:04:44;2.03;;;1.60;;
5077;SDS011;2557;51.390;7.494;2023-04-03T11:07:12;1.87;;;1.57;;
5077;SDS011;2557;51.390;7.494;2023-04-03T11:09:42;2.40;;;1.50;;
5077;SDS011;2557;51.390;7.494;2023-04-03T11:12:12;2.87;;;1.77;;
5077;SDS011;2557;51.390;7.494;2023-04-03T11:14:39;2.13;;;1.47;;
5077;SDS011;2557;51.390;7.494;2023-04-03T11:17:19;1.60;;;1.50;;
5077;SDS011;2557;51.390;7.494;2023-04-03T11:22:32;6.00;;;1.90;;
5077;SDS011;2557;51.390;7.494;2023-04-03T11:27:43;4.30;;;2.00;;
5077;SDS011;2557;51.390;7.494;2023-04-03T11:30:18;2.07;;;1.90;;
5077;SDS011;2557;51.390;7.494;2023-04-03T11:32:52;1.70;;;1.40;;
5077;SDS011;2557;51.390;7.494;2023-04-03T11:35:21;2.40;;;1.70;;
5077;SDS011;2557;51.390;7.494;2023-04-03T11:37:49;1.77;;;1.60;;
5077;SDS011;2557;51.390;7.494;2023-04-03T11:42:46;2.30;;;1.87;;
5077;SDS011;2557;51.390;7.494;2023-04-03T11:47:51;4.13;;;1.90;;
5077;SDS011;2557;51.390;7.494;2023-04-03T11:52:57;2.60;;;1.60;;
5077;SDS011;2557;51.390;7.494;2023-04-03T12:05:55;3.30;;;1.77;;
5077;SDS011;2557;51.390;7.494;2023-04-03T12:08:29;2.27;;;1.50;;
5077;SDS011;2557;51.390;7.494;2023-04-03T12:19:01;3.80;;;1.80;;
5077;SDS011;2557;51.390;7.494;2023-04-03T12:24:31;1.73;;;1.63;;
5077;SDS011;2557;51.390;7.494;2023-04-03T12:32:22;3.93;;;1.90;;
5077;SDS011;2557;51.390;7.494;2023-04-03T12:37:44;1.73;;;1.63;;
5077;SDS011;2557;51.390;7.494;2023-04-03T12:43:06;2.40;;;1.87;;
5077;SDS011;2557;51.390;7.494;2023-04-03T12:45:43;2.07;;;1.80;;
5077;SDS011;2557;51.390;7.494;2023-04-03T12:48:22;1.87;;;1.67;;
5077;SDS011;2557;51.390;7.494;2023-04-03T12:50:51;3.60;;;2.00;;
5077;SDS011;2557;51.390;7.494;2023-04-03T12:53:21;1.90;;;1.73;;
5077;SDS011;2557;51.390;7.494;2023-04-03T12:55:47;2.93;;;1.77;;
5077;SDS011;2557;51.390;7.494;2023-04-03T12:58:21;2.10;;;1.90;;
5077;SDS011;2557;51.390;7.494;2023-04-03T13:00:58;3.30;;;1.70;;
5077;SDS011;2557;51.390;7.494;2023-04-03T13:03:25;2.43;;;2.03;;
5077;SDS011;2557;51.390;7.494;2023-04-03T13:05:58;2.10;;;1.90;;
5077;SDS011;2557;51.390;7.494;2023-04-03T13:08:25;2.90;;;1.90;;
5077;SDS011;2557;51.390;7.494;2023-04-03T13:10:53;4.60;;;1.70;;
5077;SDS011;2557;51.390;7.494;2023-04-03T13:13:20;3.90;;;2.37;;
5077;SDS011;2557;51.390;7.494;2023-04-03T13:15:48;2.53;;;2.33;;
5077;SDS011;2557;51.390;7.494;2023-04-03T13:18:25;2.83;;;1.80;;
5077;SDS011;2557;51.390;7.494;2023-04-03T13:20:52;4.17;;;2.20;;
5077;SDS011;2557;51.390;7.494;2023-04-03T13:23:19;6.83;;;2.30;;
5077;SDS011;2557;51.390;7.494;2023-04-03T13:25:46;1.87;;;1.57;;
5077;SDS011;2557;51.390;7.494;2023-04-03T13:28:13;2.27;;;1.80;;
5077;SDS011;2557;51.390;7.494;2023-04-03T13:30:41;2.27;;;2.07;;
5077;SDS011;2557;51.390;7.494;2023-04-03T13:33:24;2.00;;;1.80;;
5077;SDS011;2557;51.390;7.494;2023-04-03T13:35:55;2.10;;;1.80;;
5077;SDS011;2557;51.390;7.494;2023-04-03T13:38:23;2.67;;;1.80;;
5077;SDS011;2557;51.390;7.494;2023-04-03T13:40:52;3.83;;;2.07;;
5077;SDS011;2557;51.390;7.494;2023-04-03T13:43:20;2.00;;;1.80;;
5077;SDS011;2557;51.390;7.494;2023-04-03T13:46:06;3.87;;;2.17;;
5077;SDS011;2557;51.390;7.494;2023-04-03T13:48:48;3.53;;;2.10;;
5077;SDS011;2557;51.390;7.494;2023-04-03T13:53:43;2.20;;;1.90;;
5077;SDS011;2557;51.390;7.494;2023-04-03T13:56:14;3.00;;;1.57;;
5077;SDS011;2557;51.390;7.494;2023-04-03T13:58:51;2.60;;;2.40;;
5077;SDS011;2557;51.390;7.494;2023-04-03T14:01:18;5.50;;;2.53;;
5077;SDS011;2557;51.390;7.494;2023-04-03T14:03:55;2.80;;;2.00;;
5077;SDS011;2557;51.390;7.494;2023-04-03T14:06:22;2.20;;;1.60;;
5077;SDS011;2557;51.390;7.494;2023-04-03T14:08:48;2.03;;;1.90;;
5077;SDS011;2557;51.390;7.494;2023-04-03T14:11:18;1.90;;;1.80;;
5077;SDS011;2557;51.390;7.494;2023-04-03T14:13:46;4.63;;;3.27;;
5077;SDS011;2557;51.390;7.494;2023-04-03T14:16:13;2.00;;;1.90;;
5077;SDS011;2557;51.390;7.494;2023-04-03T14:18:41;2.47;;;1.90;;
5077;SDS011;2557;51.390;7.494;2023-04-03T14:21:08;2.57;;;1.70;;
5077;SDS011;2557;51.390;7.494;2023-04-03T14:23:35;2.00;;;1.80;;
5077;SDS011;2557;51.390;7.494;2023-04-03T14:26:00;4.17;;;2.30;;
5077;SDS011;2557;51.390;7.494;2023-04-03T14:28:27;4.60;;;2.27;;
5077;SDS011;2557;51.390;7.494;2023-04-03T14:30:53;2.40;;;1.90;;
5077;SDS011;2557;51.390;7.494;2023-04-03T14:33:20;2.03;;;1.77;;
5077;SDS011;2557;51.390;7.494;2023-04-03T14:35:47;2.67;;;1.73;;
5077;SDS011;2557;51.390;7.494;2023-04-03T14:40:48;1.70;;;1.60;;
5077;SDS011;2557;51.390;7.494;2023-04-03T14:43:14;5.00;;;2.00;;
5077;SDS011;2557;51.390;7.494;2023-04-03T14:45:41;2.83;;;2.03;;
5077;SDS011;2557;51.390;7.494;2023-04-03T14:48:09;2.23;;;2.07;;
5077;SDS011;2557;51.390;7.494;2023-04-03T14:50:36;3.53;;;1.77;;
5077;SDS011;2557;51.390;7.494;2023-04-03T14:53:02;3.93;;;2.03;;
5077;SDS011;2557;51.390;7.494;2023-04-03T14:55:28;3.13;;;2.40;;
5077;SDS011;2557;51.390;7.494;2023-04-03T14:57:54;2.27;;;1.87;;
5077;SDS011;2557;51.390;7.494;2023-04-03T15:00:20;2.50;;;2.07;;
5077;SDS011;2557;51.390;7.494;2023-04-03T15:02:47;2.27;;;1.83;;
5077;SDS011;2557;51.390;7.494;2023-04-03T15:05:14;3.33;;;2.10;;
5077;SDS011;2557;51.390;7.494;2023-04-03T15:07:47;2.77;;;2.10;;
5077;SDS011;2557;51.390;7.494;2023-04-03T15:12:40;3.50;;;2.77;;
5077;SDS011;2557;51.390;7.494;2023-04-03T15:15:06;4.60;;;2.20;;
5077;SDS011;2557;51.390;7.494;2023-04-03T15:17:32;4.70;;;2.17;;
5077;SDS011;2557;51.390;7.494;2023-04-03T15:19:59;4.90;;;2.20;;
5077;SDS011;2557;51.390;7.494;2023-04-03T15:22:26;1.70;;;1.60;;
5077;SDS011;2557;51.390;7.494;2023-04-03T15:24:52;4.47;;;2.30;;
5077;SDS011;2557;51.390;7.494;2023-04-03T15:27:18;2.47;;;2.27;;
5077;SDS011;2557;51.390;7.494;2023-04-03T15:29:44;4.57;;;2.27;;
5077;SDS011;2557;51.390;7.494;2023-04-03T15:32:10;2.23;;;2.03;;
5077;SDS011;2557;51.390;7.494;2023-04-03T15:34:37;2.73;;;2.10;;
5077;SDS011;2557;51.390;7.494;2023-04-03T15:37:03;3.23;;;2.00;;
5077;SDS011;2557;51.390;7.494;2023-04-03T15:39:30;1.90;;;1.80;;
5077;SDS011;2557;51.390;7.494;2023-04-03T15:41:56;3.33;;;1.83;;
5077;SDS011;2557;51.390;7.494;2023-04-03T15:44:28;5.03;;;3.03;;
5077;SDS011;2557;51.390;7.494;2023-04-03T15:46:54;2.70;;;2.23;;
5077;SDS011;2557;51.390;7.494;2023-04-03T15:49:20;4.77;;;2.17;;
5077;SDS011;2557;51.390;7.494;2023-04-03T15:51:47;3.70;;;2.37;;
5077;SDS011;2557;51.390;7.494;2023-04-03T15:54:13;2.10;;;1.80;;
5077;SDS011;2557;51.390;7.494;2023-04-03T15:56:39;2.33;;;2.20;;
5077;SDS011;2557;51.390;7.494;2023-04-03T15:59:05;2.53;;;2.33;;
5077;SDS011;2557;51.390;7.494;2023-04-03T16:01:31;2.50;;;2.30;;
5077;SDS011;2557;51.390;7.494;2023-04-03T16:03:57;2.10;;;1.80;;
5077;SDS011;2557;51.390;7.494;2023-04-03T16:06:23;4.43;;;2.40;;
5077;SDS011;2557;51.390;7.494;2023-04-03T16:08:50;3.07;;;1.80;;
5077;SDS011;2557;51.390;7.494;2023-04-03T16:11:16;3.73;;;2.50;;
5077;SDS011;2557;51.390;7.494;2023-04-03T16:13:42;3.33;;;2.27;;
5077;SDS011;2557;51.390;7.494;2023-04-03T16:16:08;4.87;;;2.00;;
5077;SDS011;2557;51.390;7.494;2023-04-03T16:18:35;7.60;;;2.43;;
5077;SDS011;2557;51.390;7.494;2023-04-03T16:21:01;3.33;;;2.03;;
5077;SDS011;2557;51.390;7.494;2023-04-03T16:23:27;2.30;;;2.10;;
5077;SDS011;2557;51.390;7.494;2023-04-03T16:25:54;5.33;;;2.20;;
5077;SDS011;2557;51.390;7.494;2023-04-03T16:28:20;2.53;;;2.30;;
5077;SDS011;2557;51.390;7.494;2023-04-03T16:30:46;3.53;;;1.97;;
5077;SDS011;2557;51.390;7.494;2023-04-03T16:33:14;6.27;;;2.40;;
5077;SDS011;2557;51.390;7.494;2023-04-03T16:35:40;2.30;;;2.10;;
5077;SDS011;2557;51.390;7.494;2023-04-03T16:38:09;4.13;;;2.13;;
5077;SDS011;2557;51.390;7.494;2023-04-03T16:40:35;5.37;;;2.37;;
5077;SDS011;2557;51.390;7.494;2023-04-03T16:43:02;4.60;;;2.20;;
5077;SDS011;2557;51.390;7.494;2023-04-03T16:45:28;2.40;;;2.20;;
5077;SDS011;2557;51.390;7.494;2023-04-03T16:47:54;2.53;;;2.30;;